Airport ID:KO05
Update Time (UTC):18/01/2022 14:17
Wind Speed (Knots):2
Wind Direction (Magnetic):330
Temperature (°C):-8
Dew Point (°C):-8
Humidity (%):95
Altimeter (inHg):30.13
Density Altitude (Feet):
Visibility:10+
Clouds (Hundreds of feet):CLR
Present Weather:
METAR:METAR KO05 181415Z AUTO 00000KT 10SM CLR M08/M08 A3013 RMK A01

The data displayed is for advisory purposes only and is not to be used for flight planning or operations.